Time;durP1;ratioP1;P1;durP2;ratioP2;P2;SDS_P1;SDS_P2;PMS_P1;PMS_P2;Temp;Humidity;BMP_temperature;BMP_pressure;BME280_temperature;BME280_humidity;BME280_pressure;Samples;Min_cycle;Max_cycle;Signal;HPM_P1;HPM_P2
2022/04/17 00:02:05;;;;;;;6.70;6.00;;;;;;;3.33;68.40;101659.88;10236655;29;20052;-82
2022/04/17 00:07:07;;;;;;;6.20;5.60;;;;;;;3.56;65.87;101662.13;10202304;29;20111;-80
2022/04/17 00:12:09;;;;;;;7.75;6.63;;;;;;;3.39;67.23;101662.63;10231806;29;20498;-81
2022/04/17 00:17:13;;;;;;;7.13;5.88;;;;;;;3.20;67.80;101663.91;10231074;29;20044;-80
2022/04/17 00:22:15;;;;;;;7.93;6.72;;;;;;;3.08;68.97;101657.53;10233949;28;20052;-80
2022/04/17 00:27:16;;;;;;;6.63;5.75;;;;;;;3.12;68.71;101659.38;10232232;29;20044;-80
2022/04/17 00:32:18;;;;;;;5.90;5.30;;;;;;;3.32;66.48;101657.22;10235191;29;20106;-80
2022/04/17 00:37:20;;;;;;;6.80;5.93;;;;;;;3.10;67.23;101656.75;10231399;29;20087;-80
2022/04/17 00:42:21;;;;;;;6.97;6.25;;;;;;;2.85;68.22;101650.03;10236206;29;20059;-80
2022/04/17 00:47:23;;;;;;;6.28;5.13;;;;;;;2.93;68.89;101647.66;10222668;29;20103;-80
2022/04/17 00:52:25;;;;;;;7.50;6.80;;;;;;;3.04;67.11;101640.97;10256172;28;20047;-80
2022/04/17 00:57:27;;;;;;;6.55;5.85;;;;;;;2.68;68.44;101630.56;10251004;28;20118;-80
2022/04/17 01:02:29;;;;;;;6.68;5.97;;;;;;;2.92;68.18;101633.78;10242415;29;20048;-80
2022/04/17 01:07:31;;;;;;;6.45;5.80;;;;;;;2.67;68.83;101624.47;10238997;29;20047;-80
2022/04/17 01:12:35;;;;;;;6.93;6.22;;;;;;;2.71;69.16;101635.84;10235343;29;20055;-80
2022/04/17 01:17:37;;;;;;;5.90;5.40;;;;;;;2.63;68.98;101633.03;10236136;29;20052;-81
2022/04/17 01:22:47;;;;;;;6.70;6.10;;;;;;;2.78;67.74;101625.63;10236180;29;20048;-80
2022/04/17 01:27:49;;;;;;;8.75;6.68;;;;;;;2.37;69.42;101618.47;10235209;29;20047;-81
2022/04/17 01:32:50;;;;;;;6.75;6.13;;;;;;;2.09;70.98;101632.41;10250244;23;20047;-79
2022/04/17 01:37:52;;;;;;;6.93;6.32;;;;;;;1.99;71.98;101634.75;10242011;29;20047;-79
2022/04/17 01:42:53;;;;;;;8.07;6.45;;;;;;;1.97;71.70;101632.94;10247286;29;20051;-79
2022/04/17 01:47:55;;;;;;;7.18;6.47;;;;;;;2.17;72.88;101629.19;10247004;29;20513;-78
2022/04/17 01:52:59;;;;;;;8.35;6.68;;;;;;;2.25;70.72;101614.69;10263092;29;20099;-78
2022/04/17 01:58:03;;;;;;;6.93;6.22;;;;;;;2.30;70.75;101614.81;10251642;29;20076;-79
2022/04/17 02:03:04;;;;;;;6.72;6.13;;;;;;;1.95;71.74;101619.94;10259095;29;20048;-79
2022/04/17 02:08:06;;;;;;;6.63;5.97;;;;;;;1.73;73.15;101620.16;10259311;29;20035;-79
2022/04/17 02:13:08;;;;;;;7.05;6.45;;;;;;;1.67;73.91;101613.03;10254287;29;20044;-80
2022/04/17 02:18:11;;;;;;;7.35;6.68;;;;;;;1.63;73.89;101613.78;10257245;29;20047;-78
2022/04/17 02:23:14;;;;;;;7.18;6.43;;;;;;;1.63;74.02;101607.72;10256459;29;20023;-78
2022/04/17 02:28:16;;;;;;;7.70;6.82;;;;;;;1.47;74.58;101627.13;10258720;29;20044;-79
2022/04/17 02:33:17;;;;;;;7.57;6.30;;;;;;;1.84;73.48;101605.78;10260086;29;20072;-79
2022/04/17 02:38:19;;;;;;;7.38;6.55;;;;;;;1.55;73.96;101607.53;10263757;29;20048;-79
2022/04/17 02:43:23;;;;;;;7.90;7.10;;;;;;;1.67;73.30;101596.63;10262150;29;20051;-79
2022/04/17 02:48:25;;;;;;;8.65;7.05;;;;;;;1.73;72.30;101610.66;10261258;29;20102;-77
2022/04/17 02:53:27;;;;;;;7.68;6.75;;;;;;;1.43;73.58;101596.78;10260560;29;20067;-78
2022/04/17 02:58:29;;;;;;;7.28;6.57;;;;;;;1.60;72.80;101592.97;10257353;29;20056;-79
2022/04/17 03:08:51;;;;;;;11.93;7.97;;;;;;;1.25;74.15;101591.91;10253550;29;20043;-78
2022/04/17 03:13:53;;;;;;;7.88;7.10;;;;;;;1.27;74.18;101598.00;10251469;29;20068;-79
2022/04/17 03:18:55;;;;;;;7.78;6.70;;;;;;;1.09;75.70;101598.31;10249698;29;20048;-79
2022/04/17 03:23:56;;;;;;;8.02;7.15;;;;;;;1.15;75.14;101595.03;10258108;29;20059;-79
2022/04/17 03:28:59;;;;;;;9.45;7.15;;;;;;;1.23;75.20;101596.16;10259328;29;20103;-79
2022/04/17 03:34:01;;;;;;;8.57;7.07;;;;;;;1.20;75.27;101603.84;10257403;29;20067;-79
2022/04/17 03:39:02;;;;;;;9.27;8.38;;;;;;;1.38;74.11;101598.34;10234207;29;20123;-79
2022/04/17 03:44:04;;;;;;;9.90;8.30;;;;;;;1.26;74.12;101601.44;10244888;29;20098;-79
2022/04/17 03:49:05;;;;;;;8.45;7.65;;;;;;;1.25;74.11;101595.38;10237720;29;20051;-79
2022/04/17 03:54:07;;;;;;;9.02;7.85;;;;;;;1.35;73.90;101591.34;10228511;29;20052;-79
2022/04/17 03:59:09;;;;;;;8.77;7.90;;;;;;;1.20;74.78;101594.38;10211121;29;20047;-79
2022/04/17 04:04:11;;;;;;;9.95;8.50;;;;;;;1.06;76.25;101602.50;10226003;29;20075;-78
2022/04/17 04:09:12;;;;;;;8.65;7.95;;;;;;;1.03;76.06;101602.44;10230102;29;20048;-79
2022/04/17 04:14:14;;;;;;;8.63;7.80;;;;;;;1.11;74.80;101603.56;10212489;29;20059;-80
2022/04/17 04:19:15;;;;;;;9.05;8.25;;;;;;;1.32;74.34;101601.63;10231388;29;20095;-80
2022/04/17 04:24:19;;;;;;;8.77;7.97;;;;;;;1.32;72.96;101596.44;10238785;29;20052;-80
2022/04/17 04:29:21;;;;;;;10.75;8.10;;;;;;;1.34;71.97;101591.31;10249167;29;20095;-80
2022/04/17 04:34:22;;;;;;;8.73;7.85;;;;;;;1.05;73.64;101593.00;10216124;29;1047823;-80
2022/04/17 04:39:24;;;;;;;8.32;7.50;;;;;;;1.16;74.77;101592.50;10253433;29;20059;-79
2022/04/17 04:44:26;;;;;;;9.27;7.50;;;;;;;1.54;71.65;101581.53;10255052;29;20087;-79
2022/04/17 04:49:30;;;;;;;8.65;7.82;;;;;;;1.49;71.91;101586.59;10253486;29;20162;-79
2022/04/17 04:54:32;;;;;;;9.43;8.43;;;;;;;1.46;72.12;101582.22;10235823;29;20099;-79
2022/04/17 04:59:35;;;;;;;9.18;7.28;;;;;;;1.54;72.27;101584.13;10230933;29;20055;-79
2022/04/17 05:04:36;;;;;;;8.57;7.75;;;;;;;1.76;70.21;101583.91;10230053;29;20048;-79
2022/04/17 05:09:38;;;;;;;7.00;6.32;;;;;;;1.97;69.25;101581.06;10229933;29;20050;-79
2022/04/17 05:14:41;;;;;;;9.00;8.02;;;;;;;2.07;67.33;101577.88;10225434;29;20055;-78
2022/04/17 05:19:43;;;;;;;10.25;7.40;;;;;;;2.27;65.74;101565.47;10228107;29;20457;-79
2022/04/17 05:24:45;;;;;;;7.60;6.90;;;;;;;2.28;66.50;101572.41;10228370;29;20036;-79
2022/04/17 05:29:46;;;;;;;7.60;6.88;;;;;;;2.48;65.32;101562.56;10233180;29;20055;-78
2022/04/17 05:34:48;;;;;;;7.53;6.47;;;;;;;2.49;63.13;101562.59;10228491;29;20099;-79
2022/04/17 05:39:50;;;;;;;7.32;6.63;;;;;;;2.78;61.90;101565.88;10230276;29;20052;-80
2022/04/17 05:44:52;;;;;;;8.02;7.20;;;;;;;2.77;61.54;101563.28;10235391;29;20058;-79
2022/04/17 05:49:58;;;;;;;7.70;6.95;;;;;;;3.22;61.38;101562.59;10237972;29;20115;-79
2022/04/17 05:55:11;;;;;;;8.35;7.55;;;;;;;3.24;61.39;101555.72;10236859;29;20040;-79
2022/04/17 06:00:16;;;;;;;8.20;7.40;;;;;;;3.90;60.05;101558.00;10234732;29;20520;-79
2022/04/17 06:05:19;;;;;;;8.07;7.13;;;;;;;4.59;57.37;101560.97;10235742;29;20494;-78
2022/04/17 06:10:20;;;;;;;8.27;7.45;;;;;;;5.15;56.20;101553.19;10236403;29;20390;-79
2022/04/17 06:15:22;;;;;;;8.00;7.28;;;;;;;5.24;56.87;101555.94;10236557;29;20051;-79
2022/04/17 06:20:23;;;;;;;9.27;7.20;;;;;;;5.83;54.43;101550.59;10239326;29;20043;-79
2022/04/17 06:25:29;;;;;;;6.88;6.25;;;;;;;6.35;51.31;101547.72;10243859;29;20031;-80
2022/04/17 06:30:35;;;;;;;7.53;6.60;;;;;;;6.48;51.63;101547.84;10235741;29;20042;-78
2022/04/17 06:35:36;;;;;;;8.55;7.28;;;;;;;5.54;53.12;101550.25;10240590;28;20462;-80
2022/04/17 06:40:38;;;;;;;7.68;6.68;;;;;;;5.98;53.60;101540.38;10237264;29;20447;-78
2022/04/17 06:45:40;;;;;;;7.35;6.70;;;;;;;6.38;50.50;101545.16;10237059;29;20027;-78
2022/04/17 06:50:43;;;;;;;8.13;6.93;;;;;;;6.58;52.31;101541.84;10234535;29;20383;-78
2022/04/17 06:55:47;;;;;;;6.97;6.25;;;;;;;6.98;48.58;101542.16;10213972;29;20044;-79
2022/04/17 07:00:48;;;;;;;6.38;5.78;;;;;;;6.18;51.79;101543.19;10231074;29;20119;-80
2022/04/17 07:05:51;;;;;;;6.55;5.47;;;;;;;6.69;51.09;101539.31;10238845;29;20052;-79
2022/04/17 07:10:52;;;;;;;6.80;5.82;;;;;;;6.93;49.33;101543.00;10246360;29;20061;-79
2022/04/17 07:21:28;;;;;;;5.93;5.15;;;;;;;6.65;50.03;101544.53;10242677;29;20482;-80
2022/04/17 07:26:29;;;;;;;7.53;6.40;;;;;;;6.48;49.12;101544.38;10236663;29;20044;-80
2022/04/17 07:31:34;;;;;;;6.30;5.70;;;;;;;6.93;47.84;101543.00;10236023;29;20058;-77
2022/04/17 07:36:35;;;;;;;6.55;5.00;;;;;;;7.41;47.38;101537.19;10228013;23;20498;-81
2022/04/17 07:41:37;;;;;;;5.55;4.50;;;;;;;8.02;47.14;101534.81;10232763;29;20044;-81
2022/04/17 07:46:39;;;;;;;4.68;4.28;;;;;;;7.52;48.26;101535.47;10232159;29;20068;-81
2022/04/17 07:51:41;;;;;;;7.15;5.72;;;;;;;7.81;47.41;101538.22;10229861;29;20163;-82
2022/04/17 07:56:42;;;;;;;6.45;5.55;;;;;;;8.38;48.06;101527.94;10215302;29;20117;-82
2022/04/17 08:01:46;;;;;;;8.25;6.70;;;;;;;8.78;48.72;101525.31;10228982;29;20059;-80
2022/04/17 08:06:47;;;;;;;4.03;3.50;;;;;;;9.22;45.90;101530.50;10228130;29;20150;-82
2022/04/17 08:11:51;;;;;;;5.28;4.45;;;;;;;9.23;45.34;101526.13;10229753;29;20130;-80
2022/04/17 08:16:53;;;;;;;4.18;3.72;;;;;;;9.18;45.20;101526.13;10228760;29;20051;-80
2022/04/17 08:21:54;;;;;;;4.50;3.83;;;;;;;9.71;45.18;101527.72;10234603;29;20054;-79
2022/04/17 08:26:59;;;;;;;5.18;4.68;;;;;;;10.45;44.81;101517.69;10230249;29;20043;-79
2022/04/17 08:32:01;;;;;;;4.60;4.20;;;;;;;10.35;44.15;101521.22;10231905;29;20055;-81
2022/04/17 08:37:03;;;;;;;5.78;4.53;;;;;;;10.01;42.40;101517.94;10213996;29;20150;-78
2022/04/17 08:42:05;;;;;;;4.95;4.32;;;;;;;10.11;43.48;101506.47;10231385;29;20067;-81
2022/04/17 08:47:13;;;;;;;4.28;3.88;;;;;;;10.55;41.72;101514.09;10230598;29;20048;-79
2022/04/17 08:52:16;;;;;;;4.25;3.88;;;;;;;10.61;42.27;101506.13;10230499;29;20196;-80
2022/04/17 08:57:19;;;;;;;4.97;2.83;;;;;;;10.96;40.88;101502.31;10231773;29;20040;-79
2022/04/17 09:02:20;;;;;;;2.95;2.30;;;;;;;11.13;38.92;101506.53;10232587;29;20163;-80
2022/04/17 09:07:22;;;;;;;3.63;1.88;;;;;;;10.94;39.31;101493.56;10236690;29;20047;-79
2022/04/17 09:12:25;;;;;;;1.80;1.20;;;;;;;10.85;38.40;101486.63;10237980;29;20047;-80
2022/04/17 09:17:34;;;;;;;2.33;1.70;;;;;;;10.82;39.78;101478.78;10242010;29;20047;-81
2022/04/17 09:22:46;;;;;;;2.60;2.05;;;;;;;11.35;40.45;101471.19;10244664;29;20060;-81
2022/04/17 09:27:58;;;;;;;2.90;2.10;;;;;;;11.49;40.04;101463.97;10244400;29;20044;-80
2022/04/17 09:33:10;;;;;;;3.38;2.40;;;;;;;11.50;39.98;101455.19;10237027;29;20052;-80
2022/04/17 09:38:13;;;;;;;2.63;2.20;;;;;;;11.29;41.29;101439.69;10237936;29;20107;-79
2022/04/17 09:43:16;;;;;;;2.10;1.70;;;;;;;11.37;38.60;101443.94;10237426;29;20048;-80
2022/04/17 09:48:18;;;;;;;3.20;1.80;;;;;;;11.46;38.21;101426.28;10238039;29;20048;-79
2022/04/17 09:53:30;;;;;;;2.85;1.60;;;;;;;11.79;38.04;101409.16;10241704;29;20062;-79
2022/04/17 09:58:36;;;;;;;2.45;1.85;;;;;;;11.98;38.35;101410.63;10254317;29;20064;-80
2022/04/17 10:03:39;;;;;;;2.87;1.60;;;;;;;12.15;37.25;101406.88;10253727;29;20054;-79
2022/04/17 10:08:43;;;;;;;1.90;1.30;;;;;;;12.55;38.18;101401.78;10251249;29;20083;-80
2022/04/17 10:13:47;;;;;;;2.25;1.40;;;;;;;12.75;37.04;101394.38;10250600;29;20063;-80
2022/04/17 10:18:48;;;;;;;1.63;1.10;;;;;;;13.06;37.52;101388.50;10237110;29;20067;-80
2022/04/17 10:23:58;;;;;;;2.50;1.42;;;;;;;13.69;35.60;101377.44;10236653;29;20043;-79
2022/04/17 10:29:04;;;;;;;2.28;1.15;;;;;;;13.87;36.33;101368.22;10237177;29;20051;-80
2022/04/17 10:34:32;;;;;;;2.22;1.70;;;;;;;14.28;34.87;101363.66;10235910;29;20111;-79
2022/04/17 10:39:38;;;;;;;1.50;1.05;;;;;;;13.90;35.99;101347.00;10236434;29;20047;-79
2022/04/17 10:44:45;;;;;;;2.15;1.60;;;;;;;14.88;34.61;101349.72;10236532;29;20044;-81
2022/04/17 10:49:54;;;;;;;1.83;1.23;;;;;;;14.21;34.33;101335.63;10237400;29;20058;-80
2022/04/17 10:55:06;;;;;;;2.15;1.30;;;;;;;14.21;36.48;101331.22;10238981;29;20131;-79
2022/04/17 11:00:28;;;;;;;1.85;1.30;;;;;;;14.33;35.21;101324.72;10240436;29;20052;-81
2022/04/17 11:06:09;;;;;;;2.30;0.90;;;;;;;14.56;35.06;101324.13;10256794;29;20076;-79
2022/04/17 11:11:11;;;;;;;1.50;1.08;;;;;;;15.33;34.36;101318.34;10262439;29;20052;-79
2022/04/17 11:16:13;;;;;;;1.52;1.10;;;;;;;15.45;34.26;101310.91;10262993;29;20039;-79
2022/04/17 11:21:15;;;;;;;1.35;1.10;;;;;;;14.79;33.24;101319.09;10262364;29;20063;-80
2022/04/17 11:26:16;;;;;;;1.90;1.23;;;;;;;14.36;34.85;101314.06;10264792;29;20063;-81
2022/04/17 11:31:31;;;;;;;1.77;1.00;;;;;;;14.96;35.38;101294.72;10264635;28;20132;-81
2022/04/17 11:36:33;;;;;;;1.13;0.77;;;;;;;15.34;33.36;101295.34;10264384;29;20091;-81
2022/04/17 11:41:35;;;;;;;1.42;1.00;;;;;;;14.78;32.74;101287.34;10284262;28;20107;-81
2022/04/17 11:46:36;;;;;;;1.10;1.00;;;;;;;14.84;33.22;101288.03;10248240;29;20058;-79
2022/04/17 11:51:44;;;;;;;0.88;0.63;;;;;;;13.99;34.69;101274.50;10278572;29;20047;-81
2022/04/17 11:56:49;;;;;;;1.52;0.90;;;;;;;14.78;33.62;101264.38;10300039;28;20070;-80
2022/04/17 12:02:12;;;;;;;1.35;0.90;;;;;;;15.23;33.46;101247.13;10305509;28;20054;-81
2022/04/17 12:07:19;;;;;;;2.58;1.02;;;;;;;15.96;33.89;101239.44;10263390;28;20058;-81
2022/04/17 12:12:21;;;;;;;1.90;0.90;;;;;;;15.38;33.68;101241.34;10264442;28;20043;-82
2022/04/17 12:17:22;;;;;;;2.10;0.73;;;;;;;15.31;32.88;101235.38;10261340;29;20074;-83
2022/04/17 12:22:24;;;;;;;1.13;0.70;;;;;;;14.75;33.33;101238.03;10264217;29;20067;-82
2022/04/17 12:27:26;;;;;;;1.48;0.90;;;;;;;14.34;34.96;101223.31;10262835;29;20047;-80
2022/04/17 12:32:28;;;;;;;2.38;1.10;;;;;;;14.10;35.26;101209.88;10263961;28;20048;-81
2022/04/17 12:37:33;;;;;;;1.98;1.20;;;;;;;14.23;35.07;101197.16;10263022;29;20032;-80
2022/04/17 12:42:35;;;;;;;1.35;1.20;;;;;;;13.62;35.89;101194.41;10260733;29;20056;-79
2022/04/17 12:47:38;;;;;;;2.78;1.30;;;;;;;13.87;36.67;101194.63;10263392;28;20090;-78
2022/04/17 12:52:40;;;;;;;1.13;0.95;;;;;;;13.98;36.18;101198.75;10263373;28;20027;-79
2022/04/17 12:57:43;;;;;;;1.45;1.10;;;;;;;13.81;36.19;101194.81;10262948;29;20055;-80
2022/04/17 13:02:47;;;;;;;2.78;1.13;;;;;;;14.14;37.81;101185.06;10263175;29;20103;-80
2022/04/17 13:07:48;;;;;;;2.42;1.35;;;;;;;14.54;34.14;101167.22;10261048;28;20052;-80
2022/04/17 13:12:51;;;;;;;1.67;1.13;;;;;;;13.80;36.29;101165.75;10238672;29;20052;-81
2022/04/17 13:17:53;;;;;;;2.40;1.40;;;;;;;13.25;37.08;101162.78;10233810;29;20498;-81
2022/04/17 13:22:55;;;;;;;2.72;1.08;;;;;;;13.02;36.26;101144.84;10232234;29;20068;-80
2022/04/17 13:27:56;;;;;;;1.30;1.02;;;;;;;13.37;36.65;101143.13;10230798;29;20107;-81
2022/04/17 13:32:59;;;;;;;1.70;0.90;;;;;;;13.92;35.44;101128.44;10231515;29;20122;-82
2022/04/17 13:38:12;;;;;;;1.20;0.75;;;;;;;14.11;35.13;101121.69;10231346;29;20064;-79
2022/04/17 13:43:22;;;;;;;1.50;0.95;;;;;;;13.63;36.14;101118.66;10231898;29;20529;-79
2022/04/17 13:48:25;;;;;;;1.38;0.90;;;;;;;13.27;35.97;101109.94;10227232;29;20048;-78
2022/04/17 13:53:26;;;;;;;1.40;1.00;;;;;;;13.31;37.13;101107.16;10225349;29;20454;-79
2022/04/17 13:58:28;;;;;;;1.15;0.80;;;;;;;13.29;36.60;101102.84;10227704;29;20050;-78
2022/04/17 14:03:30;;;;;;;1.30;1.10;;;;;;;13.20;36.64;101096.00;10243933;29;20083;-80
2022/04/17 14:08:33;;;;;;;1.48;0.95;;;;;;;13.24;37.54;101088.91;10259245;29;20047;-78
2022/04/17 14:13:36;;;;;;;2.17;0.93;;;;;;;13.06;37.25;101082.28;10253253;29;20044;-78
2022/04/17 14:18:37;;;;;;;2.15;0.77;;;;;;;13.05;36.66;101080.53;10258671;29;20080;-79
2022/04/17 14:23:39;;;;;;;1.77;1.00;;;;;;;13.07;36.98;101074.31;10253894;29;20068;-79
2022/04/17 14:28:40;;;;;;;1.17;0.95;;;;;;;12.90;37.26;101063.31;10239390;29;20067;-78
2022/04/17 14:33:42;;;;;;;1.35;1.15;;;;;;;12.69;37.66;101056.78;10253845;29;20051;-79
2022/04/17 14:38:45;;;;;;;1.20;1.10;;;;;;;12.83;37.18;101056.44;10264742;28;20047;-77
2022/04/17 14:43:46;;;;;;;1.60;1.17;;;;;;;12.81;37.35;101050.34;10260011;29;20087;-78
2022/04/17 14:48:48;;;;;;;1.60;1.08;;;;;;;12.74;38.45;101044.34;10264521;29;20048;-78
2022/04/17 14:53:49;;;;;;;2.53;1.00;;;;;;;13.16;37.28;101033.63;10259207;29;20047;-78
2022/04/17 14:58:51;;;;;;;2.58;1.20;;;;;;;13.30;36.51;101023.59;10259204;29;20060;-77
2022/04/17 15:03:53;;;;;;;1.13;0.93;;;;;;;13.37;36.02;101026.94;10266032;29;20140;-77
2022/04/17 15:08:54;;;;;;;2.72;1.20;;;;;;;13.16;36.79;101025.69;10264732;29;20031;-78
2022/04/17 15:13:56;;;;;;;1.77;1.00;;;;;;;12.81;37.15;101016.91;10265412;29;20047;-78
2022/04/17 15:18:58;;;;;;;1.65;0.93;;;;;;;12.80;37.87;101015.19;10266079;28;20091;-78
2022/04/17 15:23:59;;;;;;;3.47;1.90;;;;;;;12.88;37.13;101010.59;10267522;28;20028;-78
2022/04/17 15:29:01;;;;;;;1.58;1.27;;;;;;;12.72;38.15;101006.59;10266863;28;20062;-78
2022/04/17 15:34:03;;;;;;;1.33;0.90;;;;;;;12.63;37.60;100997.16;10262818;28;20047;-78
2022/04/17 15:39:06;;;;;;;0.95;0.77;;;;;;;12.73;37.21;100994.28;10264521;28;20031;-78
2022/04/17 15:49:32;;;;;;;1.40;0.80;;;;;;;12.93;37.28;100985.84;10265145;28;20051;-78
2022/04/17 15:54:34;;;;;;;1.63;0.98;;;;;;;13.04;37.45;100979.38;10263461;28;20087;-78
2022/04/17 15:59:39;;;;;;;1.77;1.50;;;;;;;12.96;36.93;100970.78;10265254;29;20047;-77
2022/04/17 16:04:41;;;;;;;1.45;1.33;;;;;;;12.79;37.15;100967.72;10261839;29;20497;-77
2022/04/17 16:09:45;;;;;;;1.05;0.80;;;;;;;12.65;37.53;100964.59;10251951;29;20052;-77
2022/04/17 16:14:47;;;;;;;0.88;0.80;;;;;;;12.62;37.45;100958.50;10239136;29;20053;-77
2022/04/17 16:19:49;;;;;;;3.15;1.00;;;;;;;12.63;37.24;100954.94;10258278;29;20147;-77
2022/04/17 16:24:51;;;;;;;5.43;3.95;;;;;;;12.56;37.57;100950.72;10230586;29;20047;-77
2022/04/17 16:29:53;;;;;;;1.67;1.20;;;;;;;12.51;37.89;100943.84;10228237;29;20054;-79
2022/04/17 16:34:54;;;;;;;1.20;1.00;;;;;;;12.41;37.82;100951.13;10244339;29;20103;-78
2022/04/17 16:39:56;;;;;;;0.98;0.82;;;;;;;12.25;38.27;100942.69;10224948;29;20047;-78
2022/04/17 16:44:57;;;;;;;2.75;1.25;;;;;;;12.37;37.70;100944.19;10226544;29;20056;-79
2022/04/17 16:49:59;;;;;;;2.92;1.23;;;;;;;12.45;37.83;100933.44;10229096;29;20049;-79
2022/04/17 16:55:01;;;;;;;1.25;1.15;;;;;;;12.10;38.61;100933.41;10232170;29;20387;-78
2022/04/17 17:00:04;;;;;;;1.90;0.90;;;;;;;12.06;37.80;100929.09;10232085;29;20047;-78
2022/04/17 17:05:07;;;;;;;2.10;0.98;;;;;;;12.08;37.86;100921.16;10231230;29;20048;-78
2022/04/17 17:10:09;;;;;;;1.80;1.10;;;;;;;11.75;38.78;100923.63;10226159;29;20051;-77
2022/04/17 17:15:11;;;;;;;2.28;1.60;;;;;;;11.88;38.67;100923.41;10226513;29;20383;-78
2022/04/17 17:20:18;;;;;;;3.55;2.70;;;;;;;11.78;38.77;100920.09;10225494;29;20052;-77
2022/04/17 17:25:20;;;;;;;2.47;1.83;;;;;;;11.57;39.33;100917.00;10224846;29;20043;-77
2022/04/17 17:30:22;;;;;;;2.97;2.78;;;;;;;11.56;38.32;100920.56;10227703;29;20052;-78
2022/04/17 17:35:23;;;;;;;2.10;1.90;;;;;;;11.28;39.36;100916.75;10230598;29;20039;-77
2022/04/17 17:40:26;;;;;;;1.80;1.40;;;;;;;11.29;39.71;100913.25;10253181;29;20044;-78
2022/04/17 17:45:28;;;;;;;1.20;0.90;;;;;;;11.26;39.38;100915.94;10264267;29;20044;-78
2022/04/17 17:50:30;;;;;;;2.88;2.05;;;;;;;11.28;42.56;100916.75;10246967;29;20143;-79
2022/04/17 17:55:32;;;;;;;2.05;1.48;;;;;;;10.72;44.66;100911.72;10259970;29;20051;-79
2022/04/17 18:00:35;;;;;;;3.05;2.28;;;;;;;10.74;46.10;100915.16;10243513;29;20056;-78
2022/04/17 18:05:37;;;;;;;3.92;3.47;;;;;;;10.45;47.12;100917.47;10229078;29;20036;-77
2022/04/17 18:16:00;;;;;;;3.35;3.05;;;;;;;9.94;50.40;100927.88;10225860;29;20047;-77
2022/04/17 18:21:02;;;;;;;4.88;4.40;;;;;;;9.85;49.10;100931.50;10228103;29;20107;-77
2022/04/17 18:26:04;;;;;;;4.75;4.05;;;;;;;9.70;48.66;100929.09;10233428;29;20130;-78
2022/04/17 18:31:06;;;;;;;7.28;4.15;;;;;;;9.88;48.13;100928.84;10228453;29;20051;-78
2022/04/17 18:36:08;;;;;;;39.25;27.40;;;;;;;9.61;50.24;100930.09;10225643;29;20100;-78
2022/04/17 18:41:09;;;;;;;6.50;5.35;;;;;;;9.42;51.23;100933.81;10224942;29;20079;-79
2022/04/17 18:46:11;;;;;;;6.32;5.70;;;;;;;9.25;50.91;100929.69;10222947;29;20058;-78
2022/04/17 18:51:13;;;;;;;5.70;5.20;;;;;;;9.10;52.04;100928.09;10224455;29;20097;-78
2022/04/17 18:56:15;;;;;;;7.10;6.40;;;;;;;8.80;52.93;100915.31;10209121;29;20458;-78
2022/04/17 19:01:16;;;;;;;8.32;7.47;;;;;;;8.78;53.38;100912.72;10224940;29;20052;-78
2022/04/17 19:06:18;;;;;;;8.85;7.95;;;;;;;8.44;54.28;100909.53;10229108;29;20048;-79
2022/04/17 19:16:40;;;;;;;10.48;9.27;;;;;;;8.21;54.24;100899.22;10222347;29;20055;-79
2022/04/17 19:21:42;;;;;;;8.63;7.50;;;;;;;8.22;53.94;100885.25;10222513;29;20054;-78
2022/04/17 19:26:43;;;;;;;9.38;8.52;;;;;;;8.22;53.82;100879.16;10223621;29;20056;-78
2022/04/17 19:37:05;;;;;;;7.72;7.03;;;;;;;7.91;55.14;100868.91;10235183;23;20063;-82
2022/04/17 19:42:11;;;;;;;7.43;6.05;;;;;;;7.82;55.29;100864.63;10231829;29;20047;-82
2022/04/17 19:47:13;;;;;;;8.73;7.78;;;;;;;7.78;55.38;100864.66;10246394;29;20040;-81
2022/04/17 19:52:21;;;;;;;10.48;9.38;;;;;;;7.77;55.80;100865.53;10244211;29;20063;-82
2022/04/17 19:57:23;;;;;;;10.93;9.82;;;;;;;7.59;55.49;100871.75;10244703;29;20131;-80
2022/04/17 20:02:25;;;;;;;9.63;8.65;;;;;;;7.39;56.48;100869.25;10231059;29;20138;-82
2022/04/17 20:07:28;;;;;;;9.05;8.25;;;;;;;7.17;57.22;100867.63;10249229;29;20044;-82
2022/04/17 20:12:29;;;;;;;9.63;8.80;;;;;;;7.06;57.65;100860.69;10250121;29;20079;-81
2022/04/17 20:17:31;;;;;;;11.23;10.23;;;;;;;7.03;58.24;100860.69;10250155;29;20067;-81
2022/04/17 20:22:33;;;;;;;9.65;8.85;;;;;;;7.05;58.81;100852.88;10250804;29;20095;-80
2022/04/17 20:27:34;;;;;;;9.68;8.48;;;;;;;7.16;60.08;100855.44;10252712;29;20055;-81
2022/04/17 20:32:36;;;;;;;9.85;8.95;;;;;;;7.21;58.02;100857.13;10252483;29;20131;-80
2022/04/17 20:37:39;;;;;;;17.10;15.45;;;;;;;7.04;58.84;100849.41;10245750;29;20087;-79
2022/04/17 20:42:41;;;;;;;11.45;10.45;;;;;;;6.70;60.94;100845.16;10229949;29;20059;-81
2022/04/17 20:53:20;;;;;;;9.55;8.75;;;;;;;6.36;61.83;100837.38;10229895;28;20082;-80
2022/04/17 20:58:22;;;;;;;8.93;8.02;;;;;;;6.30;62.64;100826.97;10234480;29;20052;-82
2022/04/17 21:03:24;;;;;;;8.90;8.10;;;;;;;6.43;62.69;100822.59;10220919;29;20056;-81
2022/04/17 21:08:25;;;;;;;8.73;7.68;;;;;;;6.11;62.87;100813.09;10235653;29;20126;-82
2022/04/17 21:13:28;;;;;;;9.35;8.52;;;;;;;5.89;64.28;100821.72;10225579;29;20048;-81
2022/04/17 21:18:29;;;;;;;8.30;7.50;;;;;;;6.31;63.25;100816.50;10245409;29;20055;-81
2022/04/17 21:23:31;;;;;;;8.73;7.82;;;;;;;6.09;63.05;100812.19;10244459;29;20115;-82
2022/04/17 21:28:33;;;;;;;7.47;6.78;;;;;;;5.79;64.39;100813.03;10253170;29;20046;-80
2022/04/17 21:33:37;;;;;;;9.18;8.38;;;;;;;5.74;64.67;100809.56;10247557;29;20039;-81
2022/04/17 21:38:38;;;;;;;7.65;6.95;;;;;;;5.97;63.48;100805.22;10247705;29;20044;-82
2022/04/17 21:43:40;;;;;;;8.38;7.03;;;;;;;5.91;63.18;100809.56;10237103;29;20048;-81
2022/04/17 21:48:41;;;;;;;7.40;6.70;;;;;;;5.66;64.00;100808.69;10217591;29;20048;-80
2022/04/17 21:53:49;;;;;;;7.97;6.70;;;;;;;5.44;64.98;100802.56;10235041;29;20158;-80
2022/04/17 21:58:51;;;;;;;9.38;7.97;;;;;;;5.20;66.53;100796.47;10239861;29;20052;-80
2022/04/17 22:09:17;;;;;;;7.53;6.82;;;;;;;5.23;67.54;100800.81;10261179;29;20067;-80
2022/04/17 22:14:19;;;;;;;8.70;7.78;;;;;;;5.04;67.85;100811.16;10262196;28;20056;-79
2022/04/17 22:19:21;;;;;;;6.97;6.38;;;;;;;5.03;67.67;100809.44;10245688;29;20052;-79
2022/04/17 22:24:22;;;;;;;9.13;8.23;;;;;;;5.34;68.01;100806.91;10243456;29;20067;-80
2022/04/17 22:29:24;;;;;;;9.65;8.65;;;;;;;5.00;67.79;100814.66;10256669;29;20044;-81
2022/04/17 22:34:26;;;;;;;8.95;8.25;;;;;;;5.14;67.26;100812.09;10261534;28;20051;-81
2022/04/17 22:39:27;;;;;;;11.32;10.32;;;;;;;5.14;66.84;100812.09;10243073;29;20063;-80
2022/04/17 22:44:29;;;;;;;10.05;9.10;;;;;;;4.79;67.59;100812.84;10254291;29;20067;-80
2022/04/17 22:49:31;;;;;;;10.35;9.35;;;;;;;5.17;67.32;100806.88;10252940;29;20048;-80
2022/04/17 22:54:32;;;;;;;10.13;9.13;;;;;;;4.79;67.31;100809.38;10252706;29;20062;-80
2022/04/17 22:59:34;;;;;;;9.18;8.38;;;;;;;4.79;67.95;100802.41;10249864;29;20062;-80
2022/04/17 23:04:36;;;;;;;8.38;7.65;;;;;;;4.64;69.32;100799.72;10249041;29;20055;-80
2022/04/17 23:09:37;;;;;;;9.20;8.30;;;;;;;4.79;68.29;100797.22;10247248;29;20100;-80
2022/04/17 23:14:39;;;;;;;8.57;7.68;;;;;;;4.55;69.22;100797.94;10246539;29;20051;-80
2022/04/17 23:19:40;;;;;;;8.60;7.80;;;;;;;4.54;70.40;100795.34;10245044;29;20051;-81
2022/04/17 23:24:42;;;;;;;7.82;7.07;;;;;;;4.77;68.75;100785.03;10247294;29;20056;-81
2022/04/17 23:29:44;;;;;;;10.38;7.05;;;;;;;4.62;69.95;100784.97;10249372;29;20079;-81
2022/04/17 23:34:45;;;;;;;7.93;7.20;;;;;;;4.70;68.43;100781.53;10246792;29;20052;-80
2022/04/17 23:39:47;;;;;;;8.88;7.07;;;;;;;4.54;68.68;100778.00;10246344;29;20044;-80
2022/04/17 23:44:51;;;;;;;7.47;6.78;;;;;;;4.35;69.85;100767.50;10244741;29;20051;-81
2022/04/17 23:49:52;;;;;;;6.18;5.68;;;;;;;4.02;70.99;100769.00;10246179;29;20040;-81
2022/04/17 23:54:54;;;;;;;7.18;5.93;;;;;;;3.97;71.18;100758.56;10243672;29;20051;-81
2022/04/17 23:59:55;;;;;;;7.00;6.35;;;;;;;4.25;72.12;100762.25;10242776;29;20075;-80
